sensor_id;sensor_type;location;lat;lon;timestamp;noise_LAeq;noise_LA_min;noise_LA_max;noise_LA01;noise_LA95
72686;Laerm;61365;52.162;4.500;2023-07-20T00:01:29;42.57;32.05;55.79;;
72686;Laerm;61365;52.162;4.500;2023-07-20T00:03:55;42.68;32.24;56.34;;
72686;Laerm;61365;52.162;4.500;2023-07-20T00:06:22;42.83;31.35;55.35;;
72686;Laerm;61365;52.162;4.500;2023-07-20T00:08:49;42.61;31.98;55.86;;
72686;Laerm;61365;52.162;4.500;2023-07-20T00:11:15;42.66;32.20;55.79;;
72686;Laerm;61365;52.162;4.500;2023-07-20T00:13:42;42.51;32.09;55.74;;
72686;Laerm;61365;52.162;4.500;2023-07-20T00:16:08;42.62;32.39;55.44;;
72686;Laerm;61365;52.162;4.500;2023-07-20T00:18:34;42.70;31.95;54.54;;
72686;Laerm;61365;52.162;4.500;2023-07-20T00:21:00;42.63;32.61;55.62;;
72686;Laerm;61365;52.162;4.500;2023-07-20T00:23:27;42.67;32.78;57.40;;
72686;Laerm;61365;52.162;4.500;2023-07-20T00:25:54;42.77;31.79;56.33;;
72686;Laerm;61365;52.162;4.500;2023-07-20T00:28:20;42.78;32.95;56.61;;
72686;Laerm;61365;52.162;4.500;2023-07-20T00:30:46;42.76;32.89;55.41;;
72686;Laerm;61365;52.162;4.500;2023-07-20T00:33:12;42.69;32.46;56.22;;
72686;Laerm;61365;52.162;4.500;2023-07-20T00:35:39;42.80;32.25;55.59;;
72686;Laerm;61365;52.162;4.500;2023-07-20T00:38:05;42.70;32.25;56.11;;
72686;Laerm;61365;52.162;4.500;2023-07-20T00:40:38;42.69;32.02;57.58;;
72686;Laerm;61365;52.162;4.500;2023-07-20T00:43:04;42.62;31.84;56.29;;
72686;Laerm;61365;52.162;4.500;2023-07-20T00:45:32;42.79;32.10;55.79;;
72686;Laerm;61365;52.162;4.500;2023-07-20T00:48:01;42.82;32.31;56.62;;
72686;Laerm;61365;52.162;4.500;2023-07-20T00:50:28;42.70;32.11;55.52;;
72686;Laerm;61365;52.162;4.500;2023-07-20T00:52:55;42.59;32.82;54.91;;
72686;Laerm;61365;52.162;4.500;2023-07-20T00:55:23;42.66;32.23;58.16;;
72686;Laerm;61365;52.162;4.500;2023-07-20T00:57:50;42.69;32.23;55.95;;
72686;Laerm;61365;52.162;4.500;2023-07-20T01:00:17;42.80;32.68;55.97;;
72686;Laerm;61365;52.162;4.500;2023-07-20T01:02:44;42.51;32.27;55.94;;
72686;Laerm;61365;52.162;4.500;2023-07-20T01:05:11;42.57;32.06;57.41;;
72686;Laerm;61365;52.162;4.500;2023-07-20T01:07:56;42.63;32.34;55.70;;
72686;Laerm;61365;52.162;4.500;2023-07-20T01:10:36;42.59;32.30;55.17;;
72686;Laerm;61365;52.162;4.500;2023-07-20T01:13:06;42.69;32.16;56.48;;
72686;Laerm;61365;52.162;4.500;2023-07-20T01:15:35;42.57;31.88;56.23;;
72686;Laerm;61365;52.162;4.500;2023-07-20T01:18:02;42.60;32.12;56.97;;
72686;Laerm;61365;52.162;4.500;2023-07-20T01:20:31;42.62;31.89;55.07;;
72686;Laerm;61365;52.162;4.500;2023-07-20T01:26:02;42.70;31.94;55.00;;
72686;Laerm;61365;52.162;4.500;2023-07-20T01:31:24;42.82;31.80;55.98;;
72686;Laerm;61365;52.162;4.500;2023-07-20T01:33:54;42.69;32.24;56.85;;
72686;Laerm;61365;52.162;4.500;2023-07-20T01:36:24;42.44;32.47;55.19;;
72686;Laerm;61365;52.162;4.500;2023-07-20T01:38:52;42.57;31.98;56.13;;
72686;Laerm;61365;52.162;4.500;2023-07-20T01:41:18;42.56;32.38;56.60;;
72686;Laerm;61365;52.162;4.500;2023-07-20T01:43:44;42.58;32.12;55.13;;
72686;Laerm;61365;52.162;4.500;2023-07-20T01:46:10;42.60;31.64;57.35;;
72686;Laerm;61365;52.162;4.500;2023-07-20T01:48:36;42.60;32.17;55.37;;
72686;Laerm;61365;52.162;4.500;2023-07-20T01:51:03;42.63;32.32;55.89;;
72686;Laerm;61365;52.162;4.500;2023-07-20T01:53:30;42.50;32.48;54.15;;
72686;Laerm;61365;52.162;4.500;2023-07-20T01:55:56;42.50;32.07;56.28;;
72686;Laerm;61365;52.162;4.500;2023-07-20T01:58:23;42.74;32.19;55.18;;
72686;Laerm;61365;52.162;4.500;2023-07-20T02:00:49;42.80;31.67;55.98;;
72686;Laerm;61365;52.162;4.500;2023-07-20T02:03:15;42.68;31.94;57.64;;
72686;Laerm;61365;52.162;4.500;2023-07-20T02:05:44;42.56;32.41;55.25;;
72686;Laerm;61365;52.162;4.500;2023-07-20T02:08:11;42.66;32.40;55.45;;
72686;Laerm;61365;52.162;4.500;2023-07-20T02:10:37;42.63;32.15;55.19;;
72686;Laerm;61365;52.162;4.500;2023-07-20T02:13:03;42.79;32.10;55.83;;
72686;Laerm;61365;52.162;4.500;2023-07-20T02:15:29;42.54;32.31;55.35;;
72686;Laerm;61365;52.162;4.500;2023-07-20T02:17:55;42.48;32.12;55.95;;
72686;Laerm;61365;52.162;4.500;2023-07-20T02:20:21;42.48;32.01;54.13;;
72686;Laerm;61365;52.162;4.500;2023-07-20T02:22:48;42.70;32.25;55.97;;
72686;Laerm;61365;52.162;4.500;2023-07-20T02:25:14;42.64;31.72;54.79;;
72686;Laerm;61365;52.162;4.500;2023-07-20T02:27:40;42.63;32.17;56.88;;
72686;Laerm;61365;52.162;4.500;2023-07-20T02:30:07;42.57;31.91;55.67;;
72686;Laerm;61365;52.162;4.500;2023-07-20T02:32:33;42.65;31.91;56.05;;
72686;Laerm;61365;52.162;4.500;2023-07-20T02:35:00;42.51;32.59;56.37;;
72686;Laerm;61365;52.162;4.500;2023-07-20T02:37:26;42.72;31.94;57.51;;
72686;Laerm;61365;52.162;4.500;2023-07-20T02:39:52;42.70;31.61;58.53;;
72686;Laerm;61365;52.162;4.500;2023-07-20T02:42:18;42.69;32.32;57.50;;
72686;Laerm;61365;52.162;4.500;2023-07-20T02:44:45;42.54;31.78;56.63;;
72686;Laerm;61365;52.162;4.500;2023-07-20T02:47:11;42.72;31.91;56.33;;
72686;Laerm;61365;52.162;4.500;2023-07-20T02:49:37;42.78;32.00;55.27;;
72686;Laerm;61365;52.162;4.500;2023-07-20T02:52:04;42.73;32.95;55.95;;
72686;Laerm;61365;52.162;4.500;2023-07-20T02:54:30;42.68;31.78;55.33;;
72686;Laerm;61365;52.162;4.500;2023-07-20T02:56:56;42.69;32.11;55.28;;
72686;Laerm;61365;52.162;4.500;2023-07-20T02:59:22;42.73;32.28;54.61;;
72686;Laerm;61365;52.162;4.500;2023-07-20T03:01:48;42.75;32.45;54.63;;
72686;Laerm;61365;52.162;4.500;2023-07-20T03:04:15;42.84;32.29;55.39;;
72686;Laerm;61365;52.162;4.500;2023-07-20T03:06:42;42.82;31.94;55.04;;
72686;Laerm;61365;52.162;4.500;2023-07-20T03:09:08;42.96;32.41;56.00;;
72686;Laerm;61365;52.162;4.500;2023-07-20T03:11:35;42.82;31.56;54.46;;
72686;Laerm;61365;52.162;4.500;2023-07-20T03:14:01;42.78;32.19;55.84;;
72686;Laerm;61365;52.162;4.500;2023-07-20T03:16:27;43.00;32.05;55.67;;
72686;Laerm;61365;52.162;4.500;2023-07-20T03:18:53;42.96;31.93;54.40;;
72686;Laerm;61365;52.162;4.500;2023-07-20T03:21:19;42.89;32.06;55.13;;
72686;Laerm;61365;52.162;4.500;2023-07-20T03:23:45;42.91;31.68;54.59;;
72686;Laerm;61365;52.162;4.500;2023-07-20T03:26:11;42.86;31.84;55.22;;
72686;Laerm;61365;52.162;4.500;2023-07-20T03:28:38;42.69;32.04;55.33;;
72686;Laerm;61365;52.162;4.500;2023-07-20T03:31:05;42.77;32.10;55.77;;
72686;Laerm;61365;52.162;4.500;2023-07-20T03:33:31;42.85;32.07;56.60;;
72686;Laerm;61365;52.162;4.500;2023-07-20T03:35:58;42.99;32.22;56.28;;
72686;Laerm;61365;52.162;4.500;2023-07-20T03:38:25;42.84;32.08;55.09;;
72686;Laerm;61365;52.162;4.500;2023-07-20T03:40:53;42.92;31.91;55.41;;
72686;Laerm;61365;52.162;4.500;2023-07-20T03:43:21;42.90;31.99;58.15;;
72686;Laerm;61365;52.162;4.500;2023-07-20T03:45:47;42.74;32.60;54.90;;
72686;Laerm;61365;52.162;4.500;2023-07-20T03:48:16;42.82;32.25;56.79;;
72686;Laerm;61365;52.162;4.500;2023-07-20T03:50:44;42.68;32.21;55.42;;
72686;Laerm;61365;52.162;4.500;2023-07-20T03:53:12;42.88;32.78;55.36;;
72686;Laerm;61365;52.162;4.500;2023-07-20T03:55:38;42.81;32.40;55.86;;
72686;Laerm;61365;52.162;4.500;2023-07-20T03:58:07;42.57;32.24;55.72;;
72686;Laerm;61365;52.162;4.500;2023-07-20T04:00:34;42.71;32.24;55.10;;
72686;Laerm;61365;52.162;4.500;2023-07-20T04:03:00;42.62;32.78;55.16;;
72686;Laerm;61365;52.162;4.500;2023-07-20T04:05:27;42.63;31.90;55.51;;
72686;Laerm;61365;52.162;4.500;2023-07-20T04:07:53;42.54;32.65;55.90;;
72686;Laerm;61365;52.162;4.500;2023-07-20T04:10:19;42.61;32.43;56.02;;
72686;Laerm;61365;52.162;4.500;2023-07-20T04:12:45;42.59;32.06;57.20;;
72686;Laerm;61365;52.162;4.500;2023-07-20T04:15:15;42.55;31.81;55.24;;
72686;Laerm;61365;52.162;4.500;2023-07-20T04:17:41;42.56;32.18;56.08;;
72686;Laerm;61365;52.162;4.500;2023-07-20T04:20:08;42.60;31.93;56.87;;
72686;Laerm;61365;52.162;4.500;2023-07-20T04:22:34;42.52;32.03;55.67;;
72686;Laerm;61365;52.162;4.500;2023-07-20T04:25:00;42.50;32.28;55.10;;
72686;Laerm;61365;52.162;4.500;2023-07-20T04:27:27;42.38;32.53;55.28;;
72686;Laerm;61365;52.162;4.500;2023-07-20T04:29:53;42.41;32.68;54.67;;
72686;Laerm;61365;52.162;4.500;2023-07-20T04:32:19;42.35;32.46;55.07;;
72686;Laerm;61365;52.162;4.500;2023-07-20T04:34:45;42.59;32.62;54.93;;
72686;Laerm;61365;52.162;4.500;2023-07-20T04:37:11;42.73;31.99;55.15;;
72686;Laerm;61365;52.162;4.500;2023-07-20T04:39:37;42.65;31.66;55.93;;
72686;Laerm;61365;52.162;4.500;2023-07-20T04:42:04;42.44;32.13;54.70;;
72686;Laerm;61365;52.162;4.500;2023-07-20T04:44:30;42.53;31.99;58.29;;
72686;Laerm;61365;52.162;4.500;2023-07-20T04:46:56;42.52;33.14;53.43;;
72686;Laerm;61365;52.162;4.500;2023-07-20T04:49:22;42.53;31.99;54.51;;
72686;Laerm;61365;52.162;4.500;2023-07-20T04:51:48;42.67;32.55;56.27;;
72686;Laerm;61365;52.162;4.500;2023-07-20T04:54:14;42.52;32.17;55.64;;
72686;Laerm;61365;52.162;4.500;2023-07-20T04:56:42;42.53;31.61;54.55;;
72686;Laerm;61365;52.162;4.500;2023-07-20T04:59:08;42.42;32.14;53.96;;
72686;Laerm;61365;52.162;4.500;2023-07-20T05:01:34;42.39;31.89;54.36;;
72686;Laerm;61365;52.162;4.500;2023-07-20T05:04:00;42.50;32.83;54.33;;
72686;Laerm;61365;52.162;4.500;2023-07-20T05:06:26;42.49;32.00;54.00;;
72686;Laerm;61365;52.162;4.500;2023-07-20T05:08:53;42.43;32.09;54.60;;
72686;Laerm;61365;52.162;4.500;2023-07-20T05:11:19;42.41;31.87;53.83;;
72686;Laerm;61365;52.162;4.500;2023-07-20T05:13:45;42.31;31.74;59.36;;
72686;Laerm;61365;52.162;4.500;2023-07-20T05:16:11;42.27;31.86;54.00;;
72686;Laerm;61365;52.162;4.500;2023-07-20T05:18:37;42.35;31.90;53.51;;
72686;Laerm;61365;52.162;4.500;2023-07-20T05:21:05;42.32;31.93;53.74;;
72686;Laerm;61365;52.162;4.500;2023-07-20T05:23:31;42.30;31.93;55.36;;
72686;Laerm;61365;52.162;4.500;2023-07-20T05:25:59;42.38;32.22;53.12;;
72686;Laerm;61365;52.162;4.500;2023-07-20T05:28:25;42.48;31.66;53.00;;
72686;Laerm;61365;52.162;4.500;2023-07-20T05:30:52;42.26;31.50;53.43;;
72686;Laerm;61365;52.162;4.500;2023-07-20T05:33:20;42.41;31.69;53.25;;
72686;Laerm;61365;52.162;4.500;2023-07-20T05:35:46;42.40;31.87;52.66;;
72686;Laerm;61365;52.162;4.500;2023-07-20T05:38:13;41.88;31.69;55.10;;
72686;Laerm;61365;52.162;4.500;2023-07-20T05:40:40;42.23;31.93;54.34;;
72686;Laerm;61365;52.162;4.500;2023-07-20T05:43:07;42.36;31.94;54.30;;
72686;Laerm;61365;52.162;4.500;2023-07-20T05:45:33;42.38;31.81;53.74;;
72686;Laerm;61365;52.162;4.500;2023-07-20T05:47:59;42.24;31.81;52.49;;
72686;Laerm;61365;52.162;4.500;2023-07-20T05:50:25;42.34;31.71;52.93;;
72686;Laerm;61365;52.162;4.500;2023-07-20T05:52:54;42.25;31.89;55.15;;
72686;Laerm;61365;52.162;4.500;2023-07-20T05:55:20;42.29;31.56;54.11;;
72686;Laerm;61365;52.162;4.500;2023-07-20T05:57:47;42.04;31.63;52.37;;
72686;Laerm;61365;52.162;4.500;2023-07-20T06:00:14;41.88;31.96;52.83;;
72686;Laerm;61365;52.162;4.500;2023-07-20T06:02:40;41.88;31.47;52.34;;
72686;Laerm;61365;52.162;4.500;2023-07-20T06:05:07;42.37;31.71;56.41;;
72686;Laerm;61365;52.162;4.500;2023-07-20T06:07:37;42.00;31.87;54.08;;
72686;Laerm;61365;52.162;4.500;2023-07-20T06:10:03;41.93;31.73;54.33;;
72686;Laerm;61365;52.162;4.500;2023-07-20T06:12:29;42.08;31.60;55.57;;
72686;Laerm;61365;52.162;4.500;2023-07-20T06:14:55;41.88;31.46;54.72;;
72686;Laerm;61365;52.162;4.500;2023-07-20T06:17:22;41.80;31.88;52.60;;
72686;Laerm;61365;52.162;4.500;2023-07-20T06:19:48;41.84;31.55;53.03;;
72686;Laerm;61365;52.162;4.500;2023-07-20T06:22:14;41.82;31.71;53.85;;
72686;Laerm;61365;52.162;4.500;2023-07-20T06:24:40;41.84;31.89;52.94;;
72686;Laerm;61365;52.162;4.500;2023-07-20T06:27:06;41.83;32.23;58.23;;
72686;Laerm;61365;52.162;4.500;2023-07-20T06:29:32;41.81;31.51;52.88;;
72686;Laerm;61365;52.162;4.500;2023-07-20T06:31:58;41.82;32.34;53.60;;
72686;Laerm;61365;52.162;4.500;2023-07-20T06:34:24;41.83;31.59;53.56;;
72686;Laerm;61365;52.162;4.500;2023-07-20T06:36:50;41.82;31.95;52.35;;
72686;Laerm;61365;52.162;4.500;2023-07-20T06:39:16;41.88;32.15;54.95;;
72686;Laerm;61365;52.162;4.500;2023-07-20T06:41:42;41.98;31.70;52.91;;
72686;Laerm;61365;52.162;4.500;2023-07-20T06:44:08;41.77;31.95;52.80;;
72686;Laerm;61365;52.162;4.500;2023-07-20T06:46:34;41.83;31.77;52.69;;
72686;Laerm;61365;52.162;4.500;2023-07-20T06:49:01;41.80;31.90;55.23;;
72686;Laerm;61365;52.162;4.500;2023-07-20T06:51:27;41.74;32.06;54.45;;
72686;Laerm;61365;52.162;4.500;2023-07-20T06:53:53;41.71;31.91;54.64;;
72686;Laerm;61365;52.162;4.500;2023-07-20T06:56:19;41.69;32.01;52.57;;
72686;Laerm;61365;52.162;4.500;2023-07-20T06:58:45;41.79;31.81;54.89;;
72686;Laerm;61365;52.162;4.500;2023-07-20T07:01:11;41.62;31.73;52.16;;
72686;Laerm;61365;52.162;4.500;2023-07-20T07:03:37;41.68;32.09;54.88;;
72686;Laerm;61365;52.162;4.500;2023-07-20T07:06:03;41.75;31.37;53.44;;
72686;Laerm;61365;52.162;4.500;2023-07-20T07:08:29;41.84;31.96;53.75;;
72686;Laerm;61365;52.162;4.500;2023-07-20T07:10:55;41.94;31.99;55.14;;
72686;Laerm;61365;52.162;4.500;2023-07-20T07:13:22;41.89;32.03;53.49;;
72686;Laerm;61365;52.162;4.500;2023-07-20T07:15:48;41.83;31.40;53.77;;
72686;Laerm;61365;52.162;4.500;2023-07-20T07:18:14;41.88;32.15;54.40;;
72686;Laerm;61365;52.162;4.500;2023-07-20T07:20:40;41.79;31.99;53.14;;
72686;Laerm;61365;52.162;4.500;2023-07-20T07:23:06;41.71;31.88;53.43;;
72686;Laerm;61365;52.162;4.500;2023-07-20T07:25:32;41.66;31.17;52.68;;
72686;Laerm;61365;52.162;4.500;2023-07-20T07:27:58;41.73;31.61;53.47;;
72686;Laerm;61365;52.162;4.500;2023-07-20T07:30:24;41.62;31.72;53.11;;
72686;Laerm;61365;52.162;4.500;2023-07-20T07:32:50;41.73;31.78;52.33;;
72686;Laerm;61365;52.162;4.500;2023-07-20T07:35:16;41.71;31.67;54.38;;
72686;Laerm;61365;52.162;4.500;2023-07-20T07:37:43;41.67;31.89;53.27;;
72686;Laerm;61365;52.162;4.500;2023-07-20T07:40:09;41.73;31.74;55.19;;
72686;Laerm;61365;52.162;4.500;2023-07-20T07:42:36;41.74;31.87;53.19;;
72686;Laerm;61365;52.162;4.500;2023-07-20T07:45:03;41.69;31.62;52.40;;
72686;Laerm;61365;52.162;4.500;2023-07-20T07:47:30;41.77;31.66;53.30;;
72686;Laerm;61365;52.162;4.500;2023-07-20T07:49:56;41.92;31.86;57.90;;
72686;Laerm;61365;52.162;4.500;2023-07-20T07:52:22;41.81;31.61;53.76;;
72686;Laerm;61365;52.162;4.500;2023-07-20T07:54:48;41.93;31.66;52.73;;
72686;Laerm;61365;52.162;4.500;2023-07-20T07:57:15;41.79;31.79;52.78;;
72686;Laerm;61365;52.162;4.500;2023-07-20T07:59:41;41.89;31.99;53.12;;
72686;Laerm;61365;52.162;4.500;2023-07-20T08:02:07;41.81;32.02;53.10;;
72686;Laerm;61365;52.162;4.500;2023-07-20T08:04:33;41.91;31.75;52.69;;
72686;Laerm;61365;52.162;4.500;2023-07-20T08:06:59;41.96;31.50;54.71;;
72686;Laerm;61365;52.162;4.500;2023-07-20T08:09:25;42.03;32.36;52.69;;
72686;Laerm;61365;52.162;4.500;2023-07-20T08:11:51;41.88;31.81;51.97;;
72686;Laerm;61365;52.162;4.500;2023-07-20T08:14:17;41.89;31.80;52.93;;
72686;Laerm;61365;52.162;4.500;2023-07-20T08:16:45;41.78;31.62;53.08;;
72686;Laerm;61365;52.162;4.500;2023-07-20T08:19:11;41.70;31.90;53.42;;
72686;Laerm;61365;52.162;4.500;2023-07-20T08:21:37;41.59;32.45;53.04;;
72686;Laerm;61365;52.162;4.500;2023-07-20T08:24:04;41.55;31.64;53.84;;
72686;Laerm;61365;52.162;4.500;2023-07-20T08:26:30;41.50;31.62;53.61;;
72686;Laerm;61365;52.162;4.500;2023-07-20T08:28:56;41.82;32.16;52.80;;
72686;Laerm;61365;52.162;4.500;2023-07-20T08:31:22;41.80;31.66;52.30;;
72686;Laerm;61365;52.162;4.500;2023-07-20T08:33:49;41.75;31.93;52.15;;
72686;Laerm;61365;52.162;4.500;2023-07-20T08:36:15;41.58;31.96;53.43;;
72686;Laerm;61365;52.162;4.500;2023-07-20T08:38:41;41.62;31.58;54.22;;
72686;Laerm;61365;52.162;4.500;2023-07-20T08:41:09;41.67;31.31;54.07;;
72686;Laerm;61365;52.162;4.500;2023-07-20T08:43:37;41.53;31.49;56.07;;
72686;Laerm;61365;52.162;4.500;2023-07-20T08:46:04;41.63;31.94;53.84;;
72686;Laerm;61365;52.162;4.500;2023-07-20T08:48:30;41.58;31.80;53.05;;
72686;Laerm;61365;52.162;4.500;2023-07-20T08:50:57;41.60;32.41;53.41;;
72686;Laerm;61365;52.162;4.500;2023-07-20T08:53:27;41.65;31.79;52.16;;
72686;Laerm;61365;52.162;4.500;2023-07-20T08:55:53;41.68;31.91;53.43;;
72686;Laerm;61365;52.162;4.500;2023-07-20T08:58:21;41.69;31.82;54.61;;
72686;Laerm;61365;52.162;4.500;2023-07-20T09:00:49;41.62;32.07;52.21;;
72686;Laerm;61365;52.162;4.500;2023-07-20T09:03:17;41.55;31.82;52.37;;
72686;Laerm;61365;52.162;4.500;2023-07-20T09:05:44;41.69;31.92;52.13;;
72686;Laerm;61365;52.162;4.500;2023-07-20T09:08:10;41.71;31.95;53.21;;
72686;Laerm;61365;52.162;4.500;2023-07-20T09:10:36;41.68;31.41;53.72;;
72686;Laerm;61365;52.162;4.500;2023-07-20T09:13:02;41.61;31.81;54.06;;
72686;Laerm;61365;52.162;4.500;2023-07-20T09:15:29;41.63;31.60;52.68;;
72686;Laerm;61365;52.162;4.500;2023-07-20T09:17:56;41.65;31.53;52.04;;
72686;Laerm;61365;52.162;4.500;2023-07-20T09:20:22;41.61;31.80;52.57;;
72686;Laerm;61365;52.162;4.500;2023-07-20T09:22:48;41.63;31.90;52.82;;
72686;Laerm;61365;52.162;4.500;2023-07-20T09:25:17;41.74;31.86;53.87;;
72686;Laerm;61365;52.162;4.500;2023-07-20T09:27:48;41.60;31.78;53.74;;
72686;Laerm;61365;52.162;4.500;2023-07-20T09:30:17;41.59;31.95;52.86;;
72686;Laerm;61365;52.162;4.500;2023-07-20T09:32:47;41.48;31.54;54.92;;
72686;Laerm;61365;52.162;4.500;2023-07-20T09:35:18;41.32;31.25;51.69;;
72686;Laerm;61365;52.162;4.500;2023-07-20T09:38:00;41.17;31.25;53.29;;
72686;Laerm;61365;52.162;4.500;2023-07-20T09:40:27;41.27;31.23;52.19;;
72686;Laerm;61365;52.162;4.500;2023-07-20T09:42:54;41.36;31.59;52.87;;
72686;Laerm;61365;52.162;4.500;2023-07-20T09:45:30;41.36;31.25;53.57;;
72686;Laerm;61365;52.162;4.500;2023-07-20T09:48:06;41.36;31.41;52.66;;
72686;Laerm;61365;52.162;4.500;2023-07-20T09:50:33;41.41;31.58;51.91;;
72686;Laerm;61365;52.162;4.500;2023-07-20T09:53:01;41.41;31.20;55.06;;
72686;Laerm;61365;52.162;4.500;2023-07-20T09:55:29;41.38;31.65;51.89;;
72686;Laerm;61365;52.162;4.500;2023-07-20T09:57:56;41.34;30.88;54.07;;
72686;Laerm;61365;52.162;4.500;2023-07-20T10:00:22;41.39;31.78;52.33;;
72686;Laerm;61365;52.162;4.500;2023-07-20T10:02:50;41.32;31.38;54.36;;
72686;Laerm;61365;52.162;4.500;2023-07-20T10:05:18;41.27;31.31;51.78;;
72686;Laerm;61365;52.162;4.500;2023-07-20T10:07:49;41.25;31.69;51.93;;
72686;Laerm;61365;52.162;4.500;2023-07-20T10:10:17;41.40;32.35;52.66;;
72686;Laerm;61365;52.162;4.500;2023-07-20T10:12:46;41.39;31.63;53.48;;
72686;Laerm;61365;52.162;4.500;2023-07-20T10:15:28;41.27;30.99;52.90;;
72686;Laerm;61365;52.162;4.500;2023-07-20T10:20:31;41.51;31.51;52.47;;
72686;Laerm;61365;52.162;4.500;2023-07-20T10:22:59;41.21;31.63;52.39;;
72686;Laerm;61365;52.162;4.500;2023-07-20T10:25:26;41.18;31.11;53.21;;
72686;Laerm;61365;52.162;4.500;2023-07-20T10:27:55;41.23;31.23;51.39;;
72686;Laerm;61365;52.162;4.500;2023-07-20T10:30:23;41.35;31.95;50.99;;
72686;Laerm;61365;52.162;4.500;2023-07-20T10:32:51;41.48;31.73;52.04;;
72686;Laerm;61365;52.162;4.500;2023-07-20T10:35:18;41.29;31.60;51.60;;
72686;Laerm;61365;52.162;4.500;2023-07-20T10:37:58;41.49;31.86;52.34;;
72686;Laerm;61365;52.162;4.500;2023-07-20T10:40:33;41.38;32.03;53.11;;
72686;Laerm;61365;52.162;4.500;2023-07-20T10:43:02;41.46;32.51;52.28;;
72686;Laerm;61365;52.162;4.500;2023-07-20T10:45:51;41.41;32.13;52.46;;
72686;Laerm;61365;52.162;4.500;2023-07-20T10:48:24;41.44;32.09;53.61;;
72686;Laerm;61365;52.162;4.500;2023-07-20T10:51:20;41.35;31.60;51.30;;
72686;Laerm;61365;52.162;4.500;2023-07-20T10:53:48;41.38;32.07;53.30;;
72686;Laerm;61365;52.162;4.500;2023-07-20T10:56:20;41.46;32.05;51.70;;
72686;Laerm;61365;52.162;4.500;2023-07-20T10:58:46;41.49;31.75;54.78;;
72686;Laerm;61365;52.162;4.500;2023-07-20T11:01:18;41.17;31.63;50.39;;
72686;Laerm;61365;52.162;4.500;2023-07-20T11:03:49;41.36;32.01;52.66;;
72686;Laerm;61365;52.162;4.500;2023-07-20T11:09:06;41.37;31.85;51.04;;
72686;Laerm;61365;52.162;4.500;2023-07-20T11:11:47;41.54;32.10;52.62;;
72686;Laerm;61365;52.162;4.500;2023-07-20T11:14:23;41.42;31.77;51.35;;
72686;Laerm;61365;52.162;4.500;2023-07-20T11:16:54;41.38;31.68;53.70;;
72686;Laerm;61365;52.162;4.500;2023-07-20T11:19:23;41.31;32.58;52.74;;
72686;Laerm;61365;52.162;4.500;2023-07-20T11:24:17;41.40;32.00;56.95;;
72686;Laerm;61365;52.162;4.500;2023-07-20T11:29:11;41.37;32.18;51.43;;
72686;Laerm;61365;52.162;4.500;2023-07-20T11:31:42;41.28;31.80;52.66;;
72686;Laerm;61365;52.162;4.500;2023-07-20T11:34:16;41.33;32.10;55.81;;
72686;Laerm;61365;52.162;4.500;2023-07-20T11:36:47;41.20;31.74;52.38;;
72686;Laerm;61365;52.162;4.500;2023-07-20T11:39:18;41.56;31.94;52.42;;
72686;Laerm;61365;52.162;4.500;2023-07-20T11:41:49;41.33;32.12;52.72;;
72686;Laerm;61365;52.162;4.500;2023-07-20T11:44:16;41.37;31.87;50.53;;
72686;Laerm;61365;52.162;4.500;2023-07-20T11:46:43;41.49;31.65;53.09;;
72686;Laerm;61365;52.162;4.500;2023-07-20T11:49:13;41.43;31.56;51.40;;
72686;Laerm;61365;52.162;4.500;2023-07-20T11:51:40;41.46;32.38;53.16;;
72686;Laerm;61365;52.162;4.500;2023-07-20T11:54:08;41.32;31.52;51.83;;
72686;Laerm;61365;52.162;4.500;2023-07-20T11:56:35;41.39;31.63;50.87;;
72686;Laerm;61365;52.162;4.500;2023-07-20T11:59:01;41.37;31.87;50.59;;
72686;Laerm;61365;52.162;4.500;2023-07-20T12:01:29;41.43;32.36;50.65;;
72686;Laerm;61365;52.162;4.500;2023-07-20T12:04:02;41.35;31.58;54.28;;
72686;Laerm;61365;52.162;4.500;2023-07-20T12:06:29;41.48;32.29;50.66;;
72686;Laerm;61365;52.162;4.500;2023-07-20T12:08:57;41.41;31.56;52.56;;
72686;Laerm;61365;52.162;4.500;2023-07-20T12:11:37;41.33;31.64;51.79;;
72686;Laerm;61365;52.162;4.500;2023-07-20T12:14:04;41.42;31.50;51.06;;
72686;Laerm;61365;52.162;4.500;2023-07-20T12:16:32;41.37;31.96;52.44;;
72686;Laerm;61365;52.162;4.500;2023-07-20T12:19:10;41.25;32.16;50.34;;
72686;Laerm;61365;52.162;4.500;2023-07-20T12:21:38;41.34;31.57;52.75;;
72686;Laerm;61365;52.162;4.500;2023-07-20T12:24:06;41.42;31.89;51.96;;
72686;Laerm;61365;52.162;4.500;2023-07-20T12:26:33;41.31;32.37;51.39;;
72686;Laerm;61365;52.162;4.500;2023-07-20T12:29:00;41.40;32.17;51.71;;
72686;Laerm;61365;52.162;4.500;2023-07-20T12:31:27;41.30;31.93;52.30;;
72686;Laerm;61365;52.162;4.500;2023-07-20T12:33:54;41.23;31.68;55.75;;
72686;Laerm;61365;52.162;4.500;2023-07-20T12:36:23;41.18;31.69;53.62;;
72686;Laerm;61365;52.162;4.500;2023-07-20T12:38:49;41.41;31.79;52.02;;
72686;Laerm;61365;52.162;4.500;2023-07-20T12:41:16;41.23;32.09;54.53;;
72686;Laerm;61365;52.162;4.500;2023-07-20T12:43:43;41.21;32.06;54.72;;
72686;Laerm;61365;52.162;4.500;2023-07-20T12:46:11;41.35;32.14;52.17;;
72686;Laerm;61365;52.162;4.500;2023-07-20T12:48:38;41.35;31.99;52.85;;
72686;Laerm;61365;52.162;4.500;2023-07-20T12:51:06;41.25;31.69;52.27;;
72686;Laerm;61365;52.162;4.500;2023-07-20T12:53:32;41.44;31.84;53.35;;
72686;Laerm;61365;52.162;4.500;2023-07-20T12:55:59;41.40;31.93;50.76;;
72686;Laerm;61365;52.162;4.500;2023-07-20T12:58:25;41.29;31.49;51.08;;
72686;Laerm;61365;52.162;4.500;2023-07-20T13:00:52;41.25;32.39;52.08;;
72686;Laerm;61365;52.162;4.500;2023-07-20T13:03:18;41.25;32.02;52.44;;
72686;Laerm;61365;52.162;4.500;2023-07-20T13:05:46;41.25;32.26;52.84;;
72686;Laerm;61365;52.162;4.500;2023-07-20T13:08:12;41.30;31.89;50.88;;
72686;Laerm;61365;52.162;4.500;2023-07-20T13:10:38;41.18;31.73;55.27;;
72686;Laerm;61365;52.162;4.500;2023-07-20T13:13:05;41.27;32.21;51.43;;
72686;Laerm;61365;52.162;4.500;2023-07-20T13:15:32;41.57;31.81;52.13;;
72686;Laerm;61365;52.162;4.500;2023-07-20T13:17:59;41.44;31.58;52.10;;
72686;Laerm;61365;52.162;4.500;2023-07-20T13:20:26;41.53;31.61;51.05;;
72686;Laerm;61365;52.162;4.500;2023-07-20T13:22:53;41.52;31.67;50.87;;
72686;Laerm;61365;52.162;4.500;2023-07-20T13:25:20;41.57;31.72;54.69;;
72686;Laerm;61365;52.162;4.500;2023-07-20T13:27:46;41.36;31.91;51.58;;
72686;Laerm;61365;52.162;4.500;2023-07-20T13:30:12;41.32;31.69;51.99;;
72686;Laerm;61365;52.162;4.500;2023-07-20T13:32:45;41.27;32.15;52.26;;
72686;Laerm;61365;52.162;4.500;2023-07-20T13:35:11;41.19;31.43;52.11;;
72686;Laerm;61365;52.162;4.500;2023-07-20T13:37:38;41.41;31.50;53.15;;
72686;Laerm;61365;52.162;4.500;2023-07-20T13:40:05;41.32;31.65;50.21;;
72686;Laerm;61365;52.162;4.500;2023-07-20T13:42:34;41.27;31.92;56.17;;
72686;Laerm;61365;52.162;4.500;2023-07-20T13:45:00;41.22;31.88;50.39;;
72686;Laerm;61365;52.162;4.500;2023-07-20T13:47:27;41.48;32.25;51.25;;
72686;Laerm;61365;52.162;4.500;2023-07-20T13:49:54;41.48;32.14;50.92;;
72686;Laerm;61365;52.162;4.500;2023-07-20T13:52:20;41.43;32.16;51.92;;
72686;Laerm;61365;52.162;4.500;2023-07-20T13:54:46;41.54;32.07;51.44;;
72686;Laerm;61365;52.162;4.500;2023-07-20T13:57:12;41.57;31.94;53.07;;
72686;Laerm;61365;52.162;4.500;2023-07-20T13:59:39;41.56;32.67;52.26;;
72686;Laerm;61365;52.162;4.500;2023-07-20T14:02:05;41.53;32.38;52.22;;